sensor_id;sensor_type;location;lat;lon;timestamp;P1;durP1;ratioP1;P2;durP2;ratioP2
21480;SDS011;10902;48.158;8.634;2022-11-24T00:00:27;10.25;;;4.07;;
21480;SDS011;10902;48.158;8.634;2022-11-24T00:02:52;10.98;;;3.75;;
21480;SDS011;10902;48.158;8.634;2022-11-24T00:05:18;12.00;;;4.03;;
21480;SDS011;10902;48.158;8.634;2022-11-24T00:07:44;13.05;;;4.90;;
21480;SDS011;10902;48.158;8.634;2022-11-24T00:10:10;13.60;;;4.28;;
21480;SDS011;10902;48.158;8.634;2022-11-24T00:12:35;13.00;;;5.70;;
21480;SDS011;10902;48.158;8.634;2022-11-24T00:15:01;10.45;;;5.35;;
21480;SDS011;10902;48.158;8.634;2022-11-24T00:17:26;16.70;;;6.47;;
21480;SDS011;10902;48.158;8.634;2022-11-24T00:19:53;13.48;;;5.78;;
21480;SDS011;10902;48.158;8.634;2022-11-24T00:22:19;13.27;;;5.90;;
21480;SDS011;10902;48.158;8.634;2022-11-24T00:24:45;12.80;;;6.03;;
21480;SDS011;10902;48.158;8.634;2022-11-24T00:27:10;16.08;;;5.80;;
21480;SDS011;10902;48.158;8.634;2022-11-24T00:29:36;11.15;;;5.72;;
21480;SDS011;10902;48.158;8.634;2022-11-24T00:32:01;13.63;;;6.35;;
21480;SDS011;10902;48.158;8.634;2022-11-24T00:34:30;15.93;;;6.25;;
21480;SDS011;10902;48.158;8.634;2022-11-24T00:36:56;15.55;;;5.80;;
21480;SDS011;10902;48.158;8.634;2022-11-24T00:39:21;11.98;;;6.63;;
21480;SDS011;10902;48.158;8.634;2022-11-24T00:41:47;12.60;;;5.80;;
21480;SDS011;10902;48.158;8.634;2022-11-24T00:44:13;13.60;;;5.07;;
21480;SDS011;10902;48.158;8.634;2022-11-24T00:46:38;10.45;;;4.72;;
21480;SDS011;10902;48.158;8.634;2022-11-24T00:49:04;8.65;;;4.70;;
21480;SDS011;10902;48.158;8.634;2022-11-24T00:51:30;7.88;;;3.63;;
21480;SDS011;10902;48.158;8.634;2022-11-24T00:53:57;8.07;;;3.05;;
21480;SDS011;10902;48.158;8.634;2022-11-24T00:56:24;6.25;;;2.22;;
21480;SDS011;10902;48.158;8.634;2022-11-24T00:58:50;10.82;;;4.53;;
21480;SDS011;10902;48.158;8.634;2022-11-24T01:01:17;9.75;;;3.10;;
21480;SDS011;10902;48.158;8.634;2022-11-24T01:03:44;8.30;;;2.92;;
21480;SDS011;10902;48.158;8.634;2022-11-24T01:08:40;7.07;;;3.30;;
21480;SDS011;10902;48.158;8.634;2022-11-24T01:11:07;8.60;;;3.50;;
21480;SDS011;10902;48.158;8.634;2022-11-24T01:13:44;8.88;;;3.45;;
21480;SDS011;10902;48.158;8.634;2022-11-24T01:16:19;6.25;;;2.47;;
21480;SDS011;10902;48.158;8.634;2022-11-24T01:18:58;6.90;;;2.60;;
21480;SDS011;10902;48.158;8.634;2022-11-24T01:21:25;9.15;;;2.50;;
21480;SDS011;10902;48.158;8.634;2022-11-24T01:23:50;7.50;;;2.30;;
21480;SDS011;10902;48.158;8.634;2022-11-24T01:26:17;5.28;;;2.28;;
21480;SDS011;10902;48.158;8.634;2022-11-24T01:28:44;5.97;;;2.75;;
21480;SDS011;10902;48.158;8.634;2022-11-24T01:31:10;6.68;;;2.40;;
21480;SDS011;10902;48.158;8.634;2022-11-24T01:33:36;5.55;;;2.20;;
21480;SDS011;10902;48.158;8.634;2022-11-24T01:36:02;6.03;;;2.05;;
21480;SDS011;10902;48.158;8.634;2022-11-24T01:38:29;4.93;;;1.85;;
21480;SDS011;10902;48.158;8.634;2022-11-24T01:41:02;7.22;;;2.30;;
21480;SDS011;10902;48.158;8.634;2022-11-24T01:43:32;8.60;;;2.55;;
21480;SDS011;10902;48.158;8.634;2022-11-24T01:46:01;9.77;;;2.58;;
21480;SDS011;10902;48.158;8.634;2022-11-24T01:48:59;9.75;;;2.05;;
21480;SDS011;10902;48.158;8.634;2022-11-24T01:51:32;6.50;;;1.55;;
21480;SDS011;10902;48.158;8.634;2022-11-24T01:54:02;11.02;;;2.33;;
21480;SDS011;10902;48.158;8.634;2022-11-24T01:56:38;9.73;;;1.83;;
21480;SDS011;10902;48.158;8.634;2022-11-24T01:59:08;6.97;;;1.88;;
21480;SDS011;10902;48.158;8.634;2022-11-24T02:01:36;9.80;;;2.53;;
21480;SDS011;10902;48.158;8.634;2022-11-24T02:04:02;7.10;;;1.80;;
21480;SDS011;10902;48.158;8.634;2022-11-24T02:06:31;8.05;;;1.60;;
21480;SDS011;10902;48.158;8.634;2022-11-24T02:09:04;7.72;;;1.70;;
21480;SDS011;10902;48.158;8.634;2022-11-24T02:11:33;7.15;;;1.70;;
21480;SDS011;10902;48.158;8.634;2022-11-24T02:14:02;10.23;;;2.05;;
21480;SDS011;10902;48.158;8.634;2022-11-24T02:16:30;8.90;;;1.80;;
21480;SDS011;10902;48.158;8.634;2022-11-24T02:18:58;10.60;;;2.35;;
21480;SDS011;10902;48.158;8.634;2022-11-24T02:21:23;11.82;;;2.20;;
21480;SDS011;10902;48.158;8.634;2022-11-24T02:28:55;8.15;;;2.30;;
21480;SDS011;10902;48.158;8.634;2022-11-24T02:31:21;10.15;;;2.42;;
21480;SDS011;10902;48.158;8.634;2022-11-24T02:33:47;9.18;;;1.92;;
21480;SDS011;10902;48.158;8.634;2022-11-24T02:36:14;5.97;;;1.70;;
21480;SDS011;10902;48.158;8.634;2022-11-24T02:38:39;11.00;;;1.85;;
21480;SDS011;10902;48.158;8.634;2022-11-24T02:41:06;9.82;;;2.17;;
21480;SDS011;10902;48.158;8.634;2022-11-24T02:43:36;8.88;;;1.60;;
21480;SDS011;10902;48.158;8.634;2022-11-24T02:46:05;13.00;;;3.08;;
21480;SDS011;10902;48.158;8.634;2022-11-24T02:48:31;12.48;;;2.05;;
21480;SDS011;10902;48.158;8.634;2022-11-24T02:50:56;10.10;;;2.50;;
21480;SDS011;10902;48.158;8.634;2022-11-24T02:53:22;10.10;;;2.63;;
21480;SDS011;10902;48.158;8.634;2022-11-24T02:55:47;17.05;;;3.65;;
21480;SDS011;10902;48.158;8.634;2022-11-24T02:58:13;11.38;;;2.30;;
21480;SDS011;10902;48.158;8.634;2022-11-24T03:00:39;7.57;;;2.53;;
21480;SDS011;10902;48.158;8.634;2022-11-24T03:03:05;17.30;;;3.35;;
21480;SDS011;10902;48.158;8.634;2022-11-24T03:05:31;9.10;;;2.08;;
21480;SDS011;10902;48.158;8.634;2022-11-24T03:07:56;12.90;;;3.35;;
21480;SDS011;10902;48.158;8.634;2022-11-24T03:10:22;9.95;;;2.53;;
21480;SDS011;10902;48.158;8.634;2022-11-24T03:12:48;12.80;;;2.40;;
21480;SDS011;10902;48.158;8.634;2022-11-24T03:15:14;8.77;;;2.15;;
21480;SDS011;10902;48.158;8.634;2022-11-24T03:17:39;14.93;;;2.30;;
21480;SDS011;10902;48.158;8.634;2022-11-24T03:20:05;11.35;;;2.47;;
21480;SDS011;10902;48.158;8.634;2022-11-24T03:22:31;8.65;;;1.92;;
21480;SDS011;10902;48.158;8.634;2022-11-24T03:24:57;11.18;;;2.38;;
21480;SDS011;10902;48.158;8.634;2022-11-24T03:27:23;10.43;;;2.42;;
21480;SDS011;10902;48.158;8.634;2022-11-24T03:29:49;10.52;;;2.40;;
21480;SDS011;10902;48.158;8.634;2022-11-24T03:32:14;9.57;;;2.65;;
21480;SDS011;10902;48.158;8.634;2022-11-24T03:34:40;10.82;;;1.90;;
21480;SDS011;10902;48.158;8.634;2022-11-24T03:37:05;7.32;;;1.58;;
21480;SDS011;10902;48.158;8.634;2022-11-24T03:39:31;10.07;;;2.10;;
21480;SDS011;10902;48.158;8.634;2022-11-24T03:41:57;13.88;;;2.05;;
21480;SDS011;10902;48.158;8.634;2022-11-24T03:44:22;8.90;;;2.20;;
21480;SDS011;10902;48.158;8.634;2022-11-24T03:46:48;9.57;;;2.03;;
21480;SDS011;10902;48.158;8.634;2022-11-24T03:49:15;9.10;;;2.13;;
21480;SDS011;10902;48.158;8.634;2022-11-24T03:51:41;13.18;;;2.20;;
21480;SDS011;10902;48.158;8.634;2022-11-24T03:54:07;9.73;;;2.13;;
21480;SDS011;10902;48.158;8.634;2022-11-24T03:56:32;10.20;;;2.00;;
21480;SDS011;10902;48.158;8.634;2022-11-24T03:58:58;14.07;;;2.25;;
21480;SDS011;10902;48.158;8.634;2022-11-24T04:01:24;9.32;;;2.03;;
21480;SDS011;10902;48.158;8.634;2022-11-24T04:03:49;10.07;;;1.92;;
21480;SDS011;10902;48.158;8.634;2022-11-24T04:06:15;10.65;;;2.75;;
21480;SDS011;10902;48.158;8.634;2022-11-24T04:08:40;10.48;;;1.85;;
21480;SDS011;10902;48.158;8.634;2022-11-24T04:11:06;10.32;;;2.10;;
21480;SDS011;10902;48.158;8.634;2022-11-24T04:13:32;10.43;;;2.53;;
21480;SDS011;10902;48.158;8.634;2022-11-24T04:15:57;10.00;;;2.13;;
21480;SDS011;10902;48.158;8.634;2022-11-24T04:18:23;8.05;;;2.17;;
21480;SDS011;10902;48.158;8.634;2022-11-24T04:20:49;8.40;;;1.92;;
21480;SDS011;10902;48.158;8.634;2022-11-24T04:23:16;16.38;;;2.53;;
21480;SDS011;10902;48.158;8.634;2022-11-24T04:25:42;16.92;;;2.30;;
21480;SDS011;10902;48.158;8.634;2022-11-24T04:28:08;14.70;;;2.58;;
21480;SDS011;10902;48.158;8.634;2022-11-24T04:30:33;9.55;;;2.13;;
21480;SDS011;10902;48.158;8.634;2022-11-24T04:33:00;11.25;;;2.35;;
21480;SDS011;10902;48.158;8.634;2022-11-24T04:35:25;14.40;;;2.47;;
21480;SDS011;10902;48.158;8.634;2022-11-24T04:37:51;12.50;;;2.30;;
21480;SDS011;10902;48.158;8.634;2022-11-24T04:40:17;12.38;;;2.65;;
21480;SDS011;10902;48.158;8.634;2022-11-24T04:42:43;15.55;;;2.50;;
21480;SDS011;10902;48.158;8.634;2022-11-24T04:45:17;11.90;;;2.45;;
21480;SDS011;10902;48.158;8.634;2022-11-24T04:47:42;9.45;;;2.47;;
21480;SDS011;10902;48.158;8.634;2022-11-24T04:50:08;14.82;;;2.65;;
21480;SDS011;10902;48.158;8.634;2022-11-24T04:52:34;16.30;;;2.28;;
21480;SDS011;10902;48.158;8.634;2022-11-24T04:54:59;13.85;;;3.05;;
21480;SDS011;10902;48.158;8.634;2022-11-24T04:57:25;10.93;;;2.05;;
21480;SDS011;10902;48.158;8.634;2022-11-24T04:59:52;13.70;;;2.35;;
21480;SDS011;10902;48.158;8.634;2022-11-24T05:02:18;10.25;;;2.33;;
21480;SDS011;10902;48.158;8.634;2022-11-24T05:04:44;13.70;;;2.58;;
21480;SDS011;10902;48.158;8.634;2022-11-24T05:07:11;9.30;;;2.60;;
21480;SDS011;10902;48.158;8.634;2022-11-24T05:09:37;15.63;;;2.72;;
21480;SDS011;10902;48.158;8.634;2022-11-24T05:12:22;10.55;;;2.22;;
21480;SDS011;10902;48.158;8.634;2022-11-24T05:14:48;17.15;;;2.70;;
21480;SDS011;10902;48.158;8.634;2022-11-24T05:17:14;16.30;;;3.17;;
21480;SDS011;10902;48.158;8.634;2022-11-24T05:19:40;14.63;;;3.33;;
21480;SDS011;10902;48.158;8.634;2022-11-24T05:22:05;11.75;;;2.47;;
21480;SDS011;10902;48.158;8.634;2022-11-24T05:24:31;16.83;;;2.95;;
21480;SDS011;10902;48.158;8.634;2022-11-24T05:26:57;15.55;;;2.70;;
21480;SDS011;10902;48.158;8.634;2022-11-24T05:29:22;13.77;;;2.60;;
21480;SDS011;10902;48.158;8.634;2022-11-24T05:31:48;15.27;;;4.07;;
21480;SDS011;10902;48.158;8.634;2022-11-24T05:34:13;18.23;;;3.20;;
21480;SDS011;10902;48.158;8.634;2022-11-24T05:36:39;13.07;;;2.75;;
21480;SDS011;10902;48.158;8.634;2022-11-24T05:39:17;17.05;;;2.78;;
21480;SDS011;10902;48.158;8.634;2022-11-24T05:41:42;15.55;;;2.75;;
21480;SDS011;10902;48.158;8.634;2022-11-24T05:44:08;13.13;;;2.90;;
21480;SDS011;10902;48.158;8.634;2022-11-24T05:46:34;11.38;;;2.63;;
21480;SDS011;10902;48.158;8.634;2022-11-24T05:48:59;15.65;;;3.25;;
21480;SDS011;10902;48.158;8.634;2022-11-24T05:51:25;13.68;;;2.92;;
21480;SDS011;10902;48.158;8.634;2022-11-24T05:53:50;11.00;;;2.72;;
21480;SDS011;10902;48.158;8.634;2022-11-24T05:56:16;14.07;;;2.90;;
21480;SDS011;10902;48.158;8.634;2022-11-24T05:58:41;16.20;;;3.40;;
21480;SDS011;10902;48.158;8.634;2022-11-24T06:01:07;12.55;;;2.88;;
21480;SDS011;10902;48.158;8.634;2022-11-24T06:03:33;11.95;;;3.38;;
21480;SDS011;10902;48.158;8.634;2022-11-24T06:05:58;15.57;;;3.92;;
21480;SDS011;10902;48.158;8.634;2022-11-24T06:08:24;13.57;;;3.33;;
21480;SDS011;10902;48.158;8.634;2022-11-24T06:10:49;16.35;;;4.13;;
21480;SDS011;10902;48.158;8.634;2022-11-24T06:13:15;13.80;;;3.75;;
21480;SDS011;10902;48.158;8.634;2022-11-24T06:15:40;18.27;;;4.13;;
21480;SDS011;10902;48.158;8.634;2022-11-24T06:18:06;16.85;;;4.30;;
21480;SDS011;10902;48.158;8.634;2022-11-24T06:20:32;18.48;;;4.28;;
21480;SDS011;10902;48.158;8.634;2022-11-24T06:22:57;19.55;;;5.10;;
21480;SDS011;10902;48.158;8.634;2022-11-24T06:25:23;19.20;;;4.68;;
21480;SDS011;10902;48.158;8.634;2022-11-24T06:27:50;20.25;;;5.13;;
21480;SDS011;10902;48.158;8.634;2022-11-24T06:30:15;21.38;;;4.28;;
21480;SDS011;10902;48.158;8.634;2022-11-24T06:32:41;19.00;;;4.78;;
21480;SDS011;10902;48.158;8.634;2022-11-24T06:35:09;16.92;;;4.82;;
21480;SDS011;10902;48.158;8.634;2022-11-24T06:37:36;14.50;;;4.40;;
21480;SDS011;10902;48.158;8.634;2022-11-24T06:40:02;20.98;;;5.10;;
21480;SDS011;10902;48.158;8.634;2022-11-24T06:42:29;18.75;;;4.00;;
21480;SDS011;10902;48.158;8.634;2022-11-24T06:44:54;20.90;;;5.03;;
21480;SDS011;10902;48.158;8.634;2022-11-24T06:47:20;22.55;;;3.97;;
21480;SDS011;10902;48.158;8.634;2022-11-24T06:49:45;18.48;;;3.80;;
21480;SDS011;10902;48.158;8.634;2022-11-24T06:52:11;12.50;;;3.45;;
21480;SDS011;10902;48.158;8.634;2022-11-24T06:54:36;13.80;;;3.85;;
21480;SDS011;10902;48.158;8.634;2022-11-24T06:57:02;21.92;;;4.60;;
21480;SDS011;10902;48.158;8.634;2022-11-24T06:59:27;12.35;;;3.85;;
21480;SDS011;10902;48.158;8.634;2022-11-24T07:01:53;15.63;;;4.10;;
21480;SDS011;10902;48.158;8.634;2022-11-24T07:04:19;17.20;;;4.25;;
21480;SDS011;10902;48.158;8.634;2022-11-24T07:06:44;13.75;;;4.07;;
21480;SDS011;10902;48.158;8.634;2022-11-24T07:09:11;16.92;;;3.97;;
21480;SDS011;10902;48.158;8.634;2022-11-24T07:11:37;16.90;;;4.53;;
21480;SDS011;10902;48.158;8.634;2022-11-24T07:14:03;15.30;;;4.03;;
21480;SDS011;10902;48.158;8.634;2022-11-24T07:16:29;15.20;;;3.88;;
21480;SDS011;10902;48.158;8.634;2022-11-24T07:18:56;19.88;;;4.20;;
21480;SDS011;10902;48.158;8.634;2022-11-24T07:21:22;20.33;;;4.13;;
21480;SDS011;10902;48.158;8.634;2022-11-24T07:23:49;16.83;;;4.43;;
21480;SDS011;10902;48.158;8.634;2022-11-24T07:26:16;15.35;;;4.72;;
21480;SDS011;10902;48.158;8.634;2022-11-24T07:28:43;16.90;;;3.80;;
21480;SDS011;10902;48.158;8.634;2022-11-24T07:31:10;19.25;;;4.95;;
21480;SDS011;10902;48.158;8.634;2022-11-24T07:33:52;19.20;;;5.85;;
21480;SDS011;10902;48.158;8.634;2022-11-24T07:36:19;21.40;;;4.53;;
21480;SDS011;10902;48.158;8.634;2022-11-24T07:38:46;18.95;;;4.35;;
21480;SDS011;10902;48.158;8.634;2022-11-24T07:41:12;17.23;;;4.35;;
21480;SDS011;10902;48.158;8.634;2022-11-24T07:43:38;17.73;;;4.40;;
21480;SDS011;10902;48.158;8.634;2022-11-24T07:46:05;20.40;;;4.32;;
21480;SDS011;10902;48.158;8.634;2022-11-24T07:48:34;20.98;;;4.45;;
21480;SDS011;10902;48.158;8.634;2022-11-24T07:51:00;20.23;;;4.00;;
21480;SDS011;10902;48.158;8.634;2022-11-24T07:53:26;16.02;;;4.53;;
21480;SDS011;10902;48.158;8.634;2022-11-24T07:55:55;18.63;;;4.57;;
21480;SDS011;10902;48.158;8.634;2022-11-24T07:58:25;22.27;;;4.72;;
21480;SDS011;10902;48.158;8.634;2022-11-24T08:00:52;18.70;;;4.13;;
21480;SDS011;10902;48.158;8.634;2022-11-24T08:03:18;6.30;;;1.50;;
21480;SDS011;10902;48.158;8.634;2022-11-24T08:05:51;6.68;;;1.67;;
21480;SDS011;10902;48.158;8.634;2022-11-24T08:08:18;12.43;;;3.13;;
21480;SDS011;10902;48.158;8.634;2022-11-24T08:10:43;7.38;;;1.60;;
21480;SDS011;10902;48.158;8.634;2022-11-24T08:13:09;5.45;;;1.63;;
21480;SDS011;10902;48.158;8.634;2022-11-24T08:15:34;7.60;;;1.88;;
21480;SDS011;10902;48.158;8.634;2022-11-24T08:18:00;4.70;;;1.77;;
21480;SDS011;10902;48.158;8.634;2022-11-24T08:20:26;7.95;;;2.53;;
21480;SDS011;10902;48.158;8.634;2022-11-24T08:22:55;8.20;;;2.22;;
21480;SDS011;10902;48.158;8.634;2022-11-24T08:25:22;8.68;;;2.10;;
21480;SDS011;10902;48.158;8.634;2022-11-24T08:27:49;7.10;;;2.05;;
21480;SDS011;10902;48.158;8.634;2022-11-24T08:30:14;3.28;;;0.88;;
21480;SDS011;10902;48.158;8.634;2022-11-24T08:32:40;6.20;;;1.40;;
21480;SDS011;10902;48.158;8.634;2022-11-24T08:35:06;10.00;;;4.30;;
21480;SDS011;10902;48.158;8.634;2022-11-24T08:37:32;16.05;;;8.00;;
21480;SDS011;10902;48.158;8.634;2022-11-24T08:39:57;14.00;;;5.20;;
21480;SDS011;10902;48.158;8.634;2022-11-24T08:42:23;9.05;;;3.70;;
21480;SDS011;10902;48.158;8.634;2022-11-24T08:44:48;13.00;;;4.80;;
21480;SDS011;10902;48.158;8.634;2022-11-24T08:47:14;9.00;;;3.38;;
21480;SDS011;10902;48.158;8.634;2022-11-24T08:49:40;8.13;;;2.63;;
21480;SDS011;10902;48.158;8.634;2022-11-24T08:52:05;10.82;;;4.70;;
21480;SDS011;10902;48.158;8.634;2022-11-24T08:54:31;8.95;;;3.03;;
21480;SDS011;10902;48.158;8.634;2022-11-24T08:56:56;9.15;;;2.15;;
21480;SDS011;10902;48.158;8.634;2022-11-24T08:59:22;10.68;;;2.85;;
21480;SDS011;10902;48.158;8.634;2022-11-24T09:01:47;11.55;;;2.50;;
21480;SDS011;10902;48.158;8.634;2022-11-24T09:04:13;9.25;;;2.50;;
21480;SDS011;10902;48.158;8.634;2022-11-24T09:06:39;9.50;;;3.03;;
21480;SDS011;10902;48.158;8.634;2022-11-24T09:09:04;10.07;;;2.63;;
21480;SDS011;10902;48.158;8.634;2022-11-24T09:11:31;10.80;;;2.97;;
21480;SDS011;10902;48.158;8.634;2022-11-24T09:13:57;12.93;;;3.50;;
21480;SDS011;10902;48.158;8.634;2022-11-24T09:16:24;10.98;;;2.88;;
21480;SDS011;10902;48.158;8.634;2022-11-24T09:18:56;7.57;;;2.33;;
21480;SDS011;10902;48.158;8.634;2022-11-24T09:21:24;9.48;;;2.92;;
21480;SDS011;10902;48.158;8.634;2022-11-24T09:23:50;7.65;;;2.63;;
21480;SDS011;10902;48.158;8.634;2022-11-24T09:26:18;8.18;;;2.17;;
21480;SDS011;10902;48.158;8.634;2022-11-24T09:28:45;7.70;;;2.65;;
21480;SDS011;10902;48.158;8.634;2022-11-24T09:31:12;10.93;;;2.70;;
21480;SDS011;10902;48.158;8.634;2022-11-24T09:33:39;6.60;;;2.55;;
21480;SDS011;10902;48.158;8.634;2022-11-24T09:36:05;11.57;;;4.05;;
21480;SDS011;10902;48.158;8.634;2022-11-24T09:38:32;11.05;;;3.03;;
21480;SDS011;10902;48.158;8.634;2022-11-24T09:41:14;7.18;;;2.65;;
21480;SDS011;10902;48.158;8.634;2022-11-24T09:49:14;8.40;;;1.63;;
21480;SDS011;10902;48.158;8.634;2022-11-24T09:51:46;6.63;;;1.73;;
21480;SDS011;10902;48.158;8.634;2022-11-24T09:54:21;6.10;;;1.83;;
21480;SDS011;10902;48.158;8.634;2022-11-24T09:56:50;5.57;;;1.10;;
21480;SDS011;10902;48.158;8.634;2022-11-24T09:59:20;5.85;;;1.52;;
21480;SDS011;10902;48.158;8.634;2022-11-24T10:01:48;7.30;;;1.23;;
21480;SDS011;10902;48.158;8.634;2022-11-24T10:04:16;8.35;;;1.50;;
21480;SDS011;10902;48.158;8.634;2022-11-24T10:07:04;8.40;;;1.92;;
21480;SDS011;10902;48.158;8.634;2022-11-24T10:15:10;4.70;;;1.23;;
21480;SDS011;10902;48.158;8.634;2022-11-24T10:17:55;6.82;;;1.42;;
21480;SDS011;10902;48.158;8.634;2022-11-24T10:26:15;4.82;;;1.20;;
21480;SDS011;10902;48.158;8.634;2022-11-24T10:31:53;3.17;;;1.00;;
21480;SDS011;10902;48.158;8.634;2022-11-24T10:34:22;4.85;;;1.10;;
21480;SDS011;10902;48.158;8.634;2022-11-24T10:36:57;4.78;;;1.15;;
21480;SDS011;10902;48.158;8.634;2022-11-24T10:42:27;6.15;;;1.33;;
21480;SDS011;10902;48.158;8.634;2022-11-24T10:44:58;4.78;;;1.13;;
21480;SDS011;10902;48.158;8.634;2022-11-24T10:47:25;3.67;;;0.88;;
21480;SDS011;10902;48.158;8.634;2022-11-24T10:50:02;5.65;;;1.30;;
21480;SDS011;10902;48.158;8.634;2022-11-24T10:52:28;6.38;;;1.13;;
21480;SDS011;10902;48.158;8.634;2022-11-24T10:54:59;5.45;;;1.00;;
21480;SDS011;10902;48.158;8.634;2022-11-24T10:57:27;5.03;;;1.20;;
21480;SDS011;10902;48.158;8.634;2022-11-24T10:59:57;5.07;;;0.82;;
21480;SDS011;10902;48.158;8.634;2022-11-24T11:02:36;4.70;;;1.02;;
21480;SDS011;10902;48.158;8.634;2022-11-24T11:14:02;5.35;;;1.08;;
21480;SDS011;10902;48.158;8.634;2022-11-24T11:16:40;5.50;;;1.10;;
21480;SDS011;10902;48.158;8.634;2022-11-24T11:22:06;3.35;;;0.82;;
21480;SDS011;10902;48.158;8.634;2022-11-24T11:24:45;4.95;;;1.25;;
21480;SDS011;10902;48.158;8.634;2022-11-24T11:27:17;5.63;;;1.30;;
21480;SDS011;10902;48.158;8.634;2022-11-24T11:29:44;6.43;;;1.48;;
21480;SDS011;10902;48.158;8.634;2022-11-24T11:32:18;6.75;;;1.65;;
21480;SDS011;10902;48.158;8.634;2022-11-24T11:34:44;7.35;;;1.38;;
21480;SDS011;10902;48.158;8.634;2022-11-24T11:37:11;5.13;;;1.10;;
21480;SDS011;10902;48.158;8.634;2022-11-24T11:39:39;5.93;;;1.25;;
21480;SDS011;10902;48.158;8.634;2022-11-24T11:47:32;6.75;;;1.20;;
21480;SDS011;10902;48.158;8.634;2022-11-24T11:50:23;7.00;;;1.23;;
21480;SDS011;10902;48.158;8.634;2022-11-24T12:00:45;7.50;;;1.30;;
21480;SDS011;10902;48.158;8.634;2022-11-24T12:03:28;8.13;;;1.35;;
21480;SDS011;10902;48.158;8.634;2022-11-24T12:06:17;7.85;;;1.23;;
21480;SDS011;10902;48.158;8.634;2022-11-24T12:34:52;4.65;;;1.10;;
21480;SDS011;10902;48.158;8.634;2022-11-24T12:40:24;8.32;;;1.38;;
21480;SDS011;10902;48.158;8.634;2022-11-24T12:50:48;5.65;;;1.17;;
21480;SDS011;10902;48.158;8.634;2022-11-24T12:53:24;10.98;;;1.35;;
21480;SDS011;10902;48.158;8.634;2022-11-24T12:56:09;7.38;;;1.65;;
21480;SDS011;10902;48.158;8.634;2022-11-24T13:01:32;5.50;;;1.15;;
21480;SDS011;10902;48.158;8.634;2022-11-24T13:07:08;5.60;;;1.38;;
21480;SDS011;10902;48.158;8.634;2022-11-24T13:09:45;4.88;;;1.17;;
21480;SDS011;10902;48.158;8.634;2022-11-24T13:12:55;4.47;;;1.33;;
21480;SDS011;10902;48.158;8.634;2022-11-24T13:15:23;4.18;;;0.95;;
21480;SDS011;10902;48.158;8.634;2022-11-24T13:17:49;5.85;;;1.00;;
21480;SDS011;10902;48.158;8.634;2022-11-24T13:20:37;6.55;;;1.23;;
21480;SDS011;10902;48.158;8.634;2022-11-24T13:23:04;6.80;;;1.20;;
21480;SDS011;10902;48.158;8.634;2022-11-24T13:25:44;7.63;;;1.75;;
21480;SDS011;10902;48.158;8.634;2022-11-24T13:29:00;4.97;;;1.08;;
21480;SDS011;10902;48.158;8.634;2022-11-24T13:31:28;5.40;;;1.10;;
21480;SDS011;10902;48.158;8.634;2022-11-24T13:33:54;6.05;;;1.33;;
21480;SDS011;10902;48.158;8.634;2022-11-24T13:49:50;4.65;;;1.38;;
21480;SDS011;10902;48.158;8.634;2022-11-24T13:55:01;5.47;;;1.45;;
21480;SDS011;10902;48.158;8.634;2022-11-24T13:57:34;6.30;;;1.30;;
21480;SDS011;10902;48.158;8.634;2022-11-24T14:00:23;9.82;;;1.27;;
21480;SDS011;10902;48.158;8.634;2022-11-24T14:03:37;7.03;;;1.35;;
21480;SDS011;10902;48.158;8.634;2022-11-24T14:05:46;6.20;;;1.23;;
21480;SDS011;10902;48.158;8.634;2022-11-24T14:08:18;7.30;;;1.58;;
21480;SDS011;10902;48.158;8.634;2022-11-24T14:10:50;5.72;;;1.45;;
21480;SDS011;10902;48.158;8.634;2022-11-24T14:16:04;7.72;;;1.70;;
21480;SDS011;10902;48.158;8.634;2022-11-24T14:18:41;5.50;;;1.20;;
21480;SDS011;10902;48.158;8.634;2022-11-24T14:21:29;5.38;;;1.42;;
21480;SDS011;10902;48.158;8.634;2022-11-24T14:24:00;5.65;;;1.25;;
21480;SDS011;10902;48.158;8.634;2022-11-24T14:26:47;7.03;;;1.65;;
21480;SDS011;10902;48.158;8.634;2022-11-24T14:31:51;6.43;;;1.60;;
21480;SDS011;10902;48.158;8.634;2022-11-24T14:34:29;6.35;;;1.60;;
21480;SDS011;10902;48.158;8.634;2022-11-24T14:37:04;7.35;;;1.40;;
21480;SDS011;10902;48.158;8.634;2022-11-24T14:39:38;7.28;;;1.60;;
21480;SDS011;10902;48.158;8.634;2022-11-24T14:42:19;6.90;;;1.50;;
21480;SDS011;10902;48.158;8.634;2022-11-24T14:47:21;6.88;;;1.77;;
21480;SDS011;10902;48.158;8.634;2022-11-24T14:49:48;7.30;;;1.90;;
21480;SDS011;10902;48.158;8.634;2022-11-24T14:52:15;6.50;;;1.52;;
21480;SDS011;10902;48.158;8.634;2022-11-24T14:54:46;7.30;;;1.92;;
21480;SDS011;10902;48.158;8.634;2022-11-24T14:57:46;8.70;;;1.77;;
21480;SDS011;10902;48.158;8.634;2022-11-24T15:00:07;7.57;;;1.80;;
21480;SDS011;10902;48.158;8.634;2022-11-24T15:05:10;6.90;;;1.90;;
21480;SDS011;10902;48.158;8.634;2022-11-24T15:07:36;7.90;;;1.60;;
21480;SDS011;10902;48.158;8.634;2022-11-24T15:10:04;8.63;;;1.70;;
21480;SDS011;10902;48.158;8.634;2022-11-24T15:12:55;5.63;;;1.98;;
21480;SDS011;10902;48.158;8.634;2022-11-24T15:15:27;6.13;;;1.80;;
21480;SDS011;10902;48.158;8.634;2022-11-24T15:17:56;7.85;;;2.08;;
21480;SDS011;10902;48.158;8.634;2022-11-24T15:25:54;10.35;;;2.13;;
21480;SDS011;10902;48.158;8.634;2022-11-24T15:28:21;5.45;;;1.77;;
21480;SDS011;10902;48.158;8.634;2022-11-24T15:30:53;7.93;;;1.92;;
21480;SDS011;10902;48.158;8.634;2022-11-24T15:33:26;6.82;;;1.70;;
21480;SDS011;10902;48.158;8.634;2022-11-24T15:35:52;7.18;;;1.80;;
21480;SDS011;10902;48.158;8.634;2022-11-24T15:38:19;7.80;;;1.85;;
21480;SDS011;10902;48.158;8.634;2022-11-24T15:40:45;7.50;;;1.80;;
21480;SDS011;10902;48.158;8.634;2022-11-24T15:46:06;7.03;;;1.63;;
21480;SDS011;10902;48.158;8.634;2022-11-24T15:48:33;8.50;;;2.13;;
21480;SDS011;10902;48.158;8.634;2022-11-24T15:51:00;7.18;;;1.50;;
21480;SDS011;10902;48.158;8.634;2022-11-24T15:56:02;9.93;;;2.10;;
21480;SDS011;10902;48.158;8.634;2022-11-24T15:58:32;10.63;;;4.18;;
21480;SDS011;10902;48.158;8.634;2022-11-24T16:00:58;8.43;;;2.60;;
21480;SDS011;10902;48.158;8.634;2022-11-24T16:03:24;10.68;;;2.38;;
21480;SDS011;10902;48.158;8.634;2022-11-24T16:05:50;13.38;;;2.63;;
21480;SDS011;10902;48.158;8.634;2022-11-24T16:08:18;10.30;;;2.95;;
21480;SDS011;10902;48.158;8.634;2022-11-24T16:10:45;11.45;;;2.92;;
21480;SDS011;10902;48.158;8.634;2022-11-24T16:13:11;12.98;;;2.83;;
21480;SDS011;10902;48.158;8.634;2022-11-24T16:15:36;8.00;;;2.03;;
21480;SDS011;10902;48.158;8.634;2022-11-24T16:18:03;6.32;;;2.17;;
21480;SDS011;10902;48.158;8.634;2022-11-24T16:20:30;10.18;;;2.33;;
21480;SDS011;10902;48.158;8.634;2022-11-24T16:22:56;10.65;;;3.03;;
21480;SDS011;10902;48.158;8.634;2022-11-24T16:25:22;8.07;;;2.80;;
21480;SDS011;10902;48.158;8.634;2022-11-24T16:27:47;11.20;;;3.13;;
21480;SDS011;10902;48.158;8.634;2022-11-24T16:30:13;11.95;;;3.10;;
21480;SDS011;10902;48.158;8.634;2022-11-24T16:32:39;9.85;;;3.22;;
21480;SDS011;10902;48.158;8.634;2022-11-24T16:35:05;9.52;;;2.78;;
21480;SDS011;10902;48.158;8.634;2022-11-24T16:37:31;12.45;;;3.08;;
21480;SDS011;10902;48.158;8.634;2022-11-24T16:39:57;9.43;;;2.83;;
21480;SDS011;10902;48.158;8.634;2022-11-24T16:42:23;6.93;;;2.38;;
21480;SDS011;10902;48.158;8.634;2022-11-24T16:44:49;10.80;;;2.88;;
21480;SDS011;10902;48.158;8.634;2022-11-24T16:47:16;8.93;;;3.10;;
21480;SDS011;10902;48.158;8.634;2022-11-24T16:49:42;10.25;;;3.22;;
21480;SDS011;10902;48.158;8.634;2022-11-24T16:52:09;13.45;;;3.28;;
21480;SDS011;10902;48.158;8.634;2022-11-24T16:54:35;17.83;;;4.30;;
21480;SDS011;10902;48.158;8.634;2022-11-24T16:57:01;8.18;;;3.47;;
21480;SDS011;10902;48.158;8.634;2022-11-24T16:59:27;9.18;;;3.35;;
21480;SDS011;10902;48.158;8.634;2022-11-24T17:01:53;13.52;;;4.75;;
21480;SDS011;10902;48.158;8.634;2022-11-24T17:04:20;12.05;;;4.72;;